Time;durP1;ratioP1;P1;durP2;ratioP2;P2;SDS_P1;SDS_P2;PMS_P1;PMS_P2;Temp;Humidity;BMP_temperature;BMP_pressure;BME280_temperature;BME280_humidity;BME280_pressure;Samples;Min_cycle;Max_cycle;Signal;HPM_P1;HPM_P2
2021/06/19 00:02:07;;;;;;;4.90;2.95;;;;;;;19.55;91.68;99621.80;1755460;81;20976;-80
2021/06/19 00:04:34;;;;;;;5.75;2.90;;;;;;;19.54;91.83;99619.64;1755598;81;21509;-79
2021/06/19 00:07:03;;;;;;;3.72;3.33;;;;;;;19.52;91.13;99616.27;1755500;81;21760;-79
2021/06/19 00:09:29;;;;;;;3.05;2.77;;;;;;;19.50;91.01;99618.66;1755481;81;21040;-81
2021/06/19 00:11:55;;;;;;;4.33;3.30;;;;;;;19.45;91.30;99611.06;1755592;81;20970;-81
2021/06/19 00:14:22;;;;;;;3.52;3.08;;;;;;;19.43;91.89;99610.81;1755981;81;21445;-80
2021/06/19 00:16:49;;;;;;;4.08;2.90;;;;;;;19.40;92.10;99609.72;1755475;81;20934;-80
2021/06/19 00:19:16;;;;;;;3.45;3.15;;;;;;;19.37;92.05;99613.93;1755570;81;21220;-80
2021/06/19 00:21:43;;;;;;;3.00;2.70;;;;;;;19.33;92.12;99611.99;1755394;81;21390;-80
2021/06/19 00:24:10;;;;;;;8.98;3.37;;;;;;;19.30;92.27;99613.54;1755660;81;21001;-80
2021/06/19 00:26:38;;;;;;;4.67;4.03;;;;;;;19.27;92.52;99611.97;1755395;81;20982;-80
2021/06/19 00:29:05;;;;;;;4.60;4.22;;;;;;;19.24;93.34;99611.35;1755509;81;21049;-80
2021/06/19 00:31:32;;;;;;;7.87;4.50;;;;;;;19.22;94.22;99606.19;1755555;81;21124;-80
2021/06/19 00:33:58;;;;;;;4.80;4.40;;;;;;;19.19;95.17;99608.21;1755336;81;20977;-80
2021/06/19 00:36:25;;;;;;;4.50;4.15;;;;;;;19.16;96.20;99610.63;1755353;81;20985;-80
2021/06/19 00:38:51;;;;;;;7.40;5.35;;;;;;;19.16;97.10;99610.63;1755775;81;21386;-80
2021/06/19 00:41:18;;;;;;;8.20;6.00;;;;;;;19.16;97.97;99614.58;1755279;81;20950;-80
2021/06/19 00:43:45;;;;;;;5.80;5.30;;;;;;;19.16;98.78;99613.73;1755497;81;21127;-80
2021/06/19 00:46:12;;;;;;;7.33;5.60;;;;;;;19.16;99.18;99613.27;1755720;81;20969;-80
2021/06/19 00:48:39;;;;;;;7.85;5.67;;;;;;;19.14;99.68;99604.63;1755892;81;20921;-79
2021/06/19 00:51:05;;;;;;;6.50;5.90;;;;;;;19.13;100.00;99604.26;1755700;81;21474;-79
2021/06/19 00:53:32;;;;;;;6.20;5.60;;;;;;;19.11;100.00;99610.13;1755528;81;20937;-79
2021/06/19 00:56:01;;;;;;;7.00;5.37;;;;;;;19.08;100.00;99607.70;1755330;81;21114;-79
2021/06/19 00:58:29;;;;;;;6.45;5.58;;;;;;;19.06;100.00;99604.34;1755510;81;21462;-80
2021/06/19 01:00:56;;;;;;;9.65;6.08;;;;;;;19.02;100.00;99605.52;1755428;81;20990;-80
2021/06/19 01:03:22;;;;;;;7.22;5.70;;;;;;;18.99;100.00;99604.89;1755464;81;20957;-80
2021/06/19 01:05:50;;;;;;;7.15;6.55;;;;;;;18.96;100.00;99611.73;1755588;81;21052;-79
2021/06/19 01:08:17;;;;;;;6.47;5.83;;;;;;;18.91;100.00;99606.80;1755504;81;21422;-79
2021/06/19 01:10:45;;;;;;;7.10;6.50;;;;;;;18.88;100.00;99607.86;1755334;81;20906;-79
2021/06/19 01:13:12;;;;;;;8.13;5.75;;;;;;;18.85;100.00;99605.45;1755371;81;20934;-80
2021/06/19 01:15:40;;;;;;;6.58;5.47;;;;;;;18.81;100.00;99606.62;1755434;81;21426;-80
2021/06/19 01:18:06;;;;;;;5.20;4.70;;;;;;;18.78;100.00;99613.45;1755573;81;20981;-79
2021/06/19 01:20:36;;;;;;;5.78;5.20;;;;;;;18.75;100.00;99619.42;1756011;81;21132;-80
2021/06/19 01:23:03;;;;;;;5.75;5.20;;;;;;;18.71;100.00;99618.80;1755881;80;21387;-78
2021/06/19 01:25:32;;;;;;;6.12;5.37;;;;;;;18.69;100.00;99621.17;1755613;81;20942;-78
2021/06/19 01:28:00;;;;;;;6.78;4.75;;;;;;;18.68;100.00;99622.13;1755393;81;20938;-78
2021/06/19 01:30:28;;;;;;;9.43;5.15;;;;;;;18.67;100.00;99617.80;1755650;81;21475;-79
2021/06/19 01:32:57;;;;;;;5.60;4.45;;;;;;;18.66;100.00;99616.12;1755804;81;21112;-78
2021/06/19 01:35:23;;;;;;;5.58;4.72;;;;;;;18.66;100.00;99621.39;1755293;81;21061;-78
2021/06/19 01:37:56;;;;;;;7.15;4.25;;;;;;;18.67;100.00;99619.13;1755550;81;20945;-79
2021/06/19 01:40:26;;;;;;;6.15;4.37;;;;;;;18.66;100.00;99616.96;1755495;81;20936;-79
2021/06/19 01:42:52;;;;;;;7.55;3.75;;;;;;;18.66;100.00;99625.34;1755445;81;20949;-79
2021/06/19 01:45:32;;;;;;;4.50;4.10;;;;;;;18.64;100.00;99621.97;1755354;81;21207;-79
2021/06/19 01:48:04;;;;;;;6.80;4.15;;;;;;;18.62;100.00;99618.60;1755414;81;20925;-79
2021/06/19 01:50:31;;;;;;;4.85;4.17;;;;;;;18.59;99.98;99623.61;1755428;81;20942;-79
2021/06/19 01:52:59;;;;;;;6.33;4.25;;;;;;;18.55;99.81;99617.72;1728293;81;21489;-80
2021/06/19 01:55:25;;;;;;;5.53;4.00;;;;;;;18.55;99.54;99618.20;1755905;80;20997;-79
2021/06/19 01:57:55;;;;;;;7.20;3.95;;;;;;;18.52;99.38;99610.03;1755750;81;21423;-79
2021/06/19 02:00:26;;;;;;;5.83;4.37;;;;;;;18.50;99.34;99610.61;1755471;81;21386;-79
2021/06/19 02:02:53;;;;;;;4.33;3.70;;;;;;;18.50;99.20;99608.45;1755766;81;20949;-80
2021/06/19 02:05:21;;;;;;;5.58;4.10;;;;;;;18.50;98.98;99604.50;1755481;81;21378;-79
2021/06/19 02:07:57;;;;;;;4.42;3.65;;;;;;;18.50;98.63;99604.03;1755688;81;20950;-79
2021/06/19 02:10:30;;;;;;;6.50;3.62;;;;;;;18.52;98.38;99610.51;1755509;81;21123;-79
2021/06/19 02:12:57;;;;;;;5.40;4.20;;;;;;;18.54;98.06;99608.61;1755730;81;20956;-79
2021/06/19 02:15:25;;;;;;;8.20;3.67;;;;;;;18.54;97.65;99610.77;1755373;81;21025;-79
2021/06/19 02:17:51;;;;;;;6.30;3.85;;;;;;;18.53;97.16;99610.88;1755417;81;20948;-79
2021/06/19 02:20:19;;;;;;;4.65;3.33;;;;;;;18.54;96.87;99615.19;1755506;81;21461;-78
2021/06/19 02:22:46;;;;;;;4.67;3.17;;;;;;;18.55;96.78;99620.83;1755355;81;20989;-79
2021/06/19 02:25:14;;;;;;;6.28;3.52;;;;;;;18.57;96.67;99618.45;1755566;80;20926;-79
2021/06/19 02:27:57;;;;;;;5.33;3.42;;;;;;;18.58;96.37;99625.38;1755905;81;20940;-79
2021/06/19 02:30:26;;;;;;;7.03;3.37;;;;;;;18.60;96.15;99621.34;1756043;81;21064;-79
2021/06/19 02:32:53;;;;;;;6.15;3.75;;;;;;;18.62;95.99;99622.55;1755797;81;20950;-78
2021/06/19 02:35:22;;;;;;;5.72;3.37;;;;;;;18.64;95.79;99624.61;1755356;80;21219;-78
2021/06/19 02:37:48;;;;;;;5.80;3.40;;;;;;;18.65;95.60;99623.18;1755718;81;20934;-78
2021/06/19 02:40:15;;;;;;;6.67;3.80;;;;;;;18.67;95.48;99629.19;1755364;81;21029;-79
2021/06/19 02:42:42;;;;;;;6.12;2.85;;;;;;;18.69;95.22;99629.92;1755213;81;21012;-79
2021/06/19 02:45:11;;;;;;;3.40;3.10;;;;;;;18.73;94.88;99634.02;1755390;81;20981;-78
2021/06/19 02:47:47;;;;;;;4.12;3.20;;;;;;;18.75;94.63;99628.16;1755318;81;21135;-79
2021/06/19 02:50:15;;;;;;;3.25;2.80;;;;;;;18.78;94.33;99629.27;1755520;81;21520;-79
2021/06/19 02:52:43;;;;;;;4.05;3.08;;;;;;;18.81;94.02;99633.44;1755390;81;20942;-78
2021/06/19 02:55:19;;;;;;;3.85;2.65;;;;;;;18.83;93.62;99624.48;1755599;81;21426;-78
2021/06/19 02:57:45;;;;;;;5.35;3.00;;;;;;;18.86;93.27;99626.89;1755440;81;21532;-78
2021/06/19 03:00:15;;;;;;;6.70;2.87;;;;;;;18.90;93.10;99624.41;1755518;81;21865;-78
2021/06/19 03:02:42;;;;;;;5.42;3.25;;;;;;;18.97;92.88;99631.40;1755693;81;21462;-78
2021/06/19 03:05:11;;;;;;;4.08;2.90;;;;;;;19.04;92.74;99635.24;1755859;81;20982;-78
2021/06/19 03:07:38;;;;;;;5.45;3.27;;;;;;;19.10;92.52;99641.39;1755445;81;20986;-78
2021/06/19 03:10:06;;;;;;;9.33;2.60;;;;;;;19.18;92.25;99640.84;1755621;81;21481;-79
2021/06/19 03:12:33;;;;;;;10.13;2.90;;;;;;;19.28;91.92;99649.73;1755323;81;21132;-77
2021/06/19 03:15:00;;;;;;;5.95;2.90;;;;;;;19.37;91.30;99653.49;1755400;81;20958;-78
2021/06/19 03:17:26;;;;;;;2.90;2.67;;;;;;;19.49;90.80;99649.92;1755531;81;20973;-78
2021/06/19 03:19:52;;;;;;;5.20;2.80;;;;;;;19.58;90.01;99650.59;1755737;81;20949;-78
2021/06/19 03:22:19;;;;;;;8.43;2.95;;;;;;;19.68;89.56;99654.68;1755500;81;20938;-78
2021/06/19 03:24:46;;;;;;;5.55;2.83;;;;;;;19.75;88.69;99653.27;1755802;81;21059;-78
2021/06/19 03:27:14;;;;;;;5.22;2.83;;;;;;;19.80;88.18;99654.57;1755661;81;21370;-77
2021/06/19 03:29:42;;;;;;;3.42;2.40;;;;;;;19.86;87.91;99655.43;1755564;81;21458;-78
2021/06/19 03:32:09;;;;;;;5.20;2.27;;;;;;;19.94;87.32;99655.70;1755544;81;21005;-78
2021/06/19 03:34:37;;;;;;;5.80;2.72;;;;;;;20.04;86.96;99661.56;1755565;81;21001;-78
2021/06/19 03:37:04;;;;;;;4.40;2.70;;;;;;;20.14;86.62;99662.55;1757100;81;21084;-78
2021/06/19 03:39:33;;;;;;;4.67;2.70;;;;;;;20.48;86.10;99665.57;1755652;81;20981;-77
2021/06/19 03:42:00;;;;;;;3.45;2.47;;;;;;;21.09;83.68;99671.69;1755589;81;21453;-78
2021/06/19 03:44:27;;;;;;;6.05;2.65;;;;;;;21.80;81.41;99668.37;1755469;81;20993;-78
2021/06/19 03:46:53;;;;;;;4.00;2.40;;;;;;;22.51;78.65;99665.83;1755586;81;21028;-78
2021/06/19 03:49:20;;;;;;;5.55;2.40;;;;;;;23.22;75.91;99667.38;1755549;81;21071;-77
2021/06/19 03:51:47;;;;;;;3.80;2.83;;;;;;;23.86;72.67;99668.12;1755502;81;20993;-78
2021/06/19 03:54:15;;;;;;;6.12;2.50;;;;;;;24.42;69.35;99669.91;1755375;81;20997;-78
2021/06/19 03:56:42;;;;;;;6.12;2.12;;;;;;;24.85;66.96;99663.95;1755533;81;21063;-78
2021/06/19 03:59:08;;;;;;;3.20;2.70;;;;;;;25.19;64.75;99664.14;1755524;81;20985;-79
2021/06/19 04:01:36;;;;;;;5.75;3.65;;;;;;;25.49;63.06;99661.59;1755544;81;21126;-78
2021/06/19 04:04:04;;;;;;;5.95;2.67;;;;;;;25.80;63.07;99662.02;1755619;81;21509;-79
2021/06/19 04:06:30;;;;;;;9.98;2.90;;;;;;;26.10;61.07;99663.38;1755573;81;20953;-78
2021/06/19 04:08:57;;;;;;;4.40;2.60;;;;;;;26.36;60.88;99663.39;1755599;81;20962;-79
2021/06/19 04:11:23;;;;;;;6.53;2.35;;;;;;;26.57;59.79;99662.48;1756125;81;20949;-79
2021/06/19 04:13:51;;;;;;;4.05;2.52;;;;;;;26.53;59.56;99662.96;1755475;81;21128;-79
2021/06/19 04:16:17;;;;;;;8.00;3.15;;;;;;;26.36;58.77;99670.06;1755775;81;20957;-80
2021/06/19 04:18:45;;;;;;;3.90;2.60;;;;;;;26.04;58.60;99670.67;1755412;81;20973;-79
2021/06/19 04:21:11;;;;;;;4.87;2.47;;;;;;;25.64;59.29;99672.06;1755708;81;20922;-79
2021/06/19 04:23:38;;;;;;;11.80;3.50;;;;;;;25.28;59.86;99665.91;1755556;81;21021;-79
2021/06/19 04:26:04;;;;;;;5.10;2.42;;;;;;;25.02;61.01;99666.31;1755479;81;21193;-78
2021/06/19 04:28:31;;;;;;;7.05;2.67;;;;;;;24.93;61.47;99665.37;1755497;81;20934;-79
2021/06/19 04:31:00;;;;;;;5.85;2.72;;;;;;;24.90;61.88;99676.31;1755444;81;21436;-79
2021/06/19 04:33:27;;;;;;;5.75;3.05;;;;;;;24.70;62.03;99667.61;1755441;81;20977;-78
2021/06/19 04:35:55;;;;;;;4.70;3.15;;;;;;;24.42;62.67;99668.59;1755495;81;21071;-78
2021/06/19 04:38:21;;;;;;;2.95;2.65;;;;;;;24.16;63.82;99675.53;1755382;81;21113;-78
2021/06/19 04:40:56;;;;;;;5.87;3.00;;;;;;;23.95;64.64;99673.08;1755342;81;20990;-78
2021/06/19 04:43:17;;;;;;;4.85;2.90;;;;;;;23.81;65.00;99676.16;1754032;81;21021;-78
2021/06/19 04:45:44;;;;;;;3.60;2.75;;;;;;;23.69;65.73;99680.31;1755922;81;21520;-78
2021/06/19 04:48:10;;;;;;;15.18;2.87;;;;;;;23.55;66.39;99680.76;1755385;81;20934;-79
2021/06/19 04:50:37;;;;;;;9.90;3.15;;;;;;;23.50;67.17;99681.63;1755365;81;21063;-78
2021/06/19 04:53:04;;;;;;;5.92;3.33;;;;;;;23.49;67.12;99676.45;1755392;81;21524;-78
2021/06/19 04:55:30;;;;;;;3.62;3.12;;;;;;;23.48;67.53;99681.42;1755422;81;20930;-79
2021/06/19 04:57:58;;;;;;;6.03;2.90;;;;;;;23.56;67.30;99679.78;1755431;81;21005;-78
2021/06/19 05:00:26;;;;;;;14.35;3.98;;;;;;;23.64;66.89;99686.53;1755838;81;20973;-78
2021/06/19 05:02:53;;;;;;;6.58;2.98;;;;;;;23.84;67.26;99681.19;1755504;81;21780;-78
2021/06/19 05:05:21;;;;;;;8.98;3.77;;;;;;;24.07;66.99;99683.03;1755332;81;20918;-78
2021/06/19 05:07:47;;;;;;;15.25;4.37;;;;;;;24.22;66.01;99672.27;1755639;81;20997;-78
2021/06/19 05:10:13;;;;;;;3.72;3.42;;;;;;;24.23;66.16;99671.29;1755356;81;21051;-78
2021/06/19 05:12:43;;;;;;;17.32;4.33;;;;;;;24.16;65.85;99663.58;1755567;80;21398;-78
2021/06/19 05:15:13;;;;;;;13.00;3.58;;;;;;;24.09;66.20;99669.11;1755337;81;21147;-78
2021/06/19 05:17:40;;;;;;;7.03;3.15;;;;;;;24.23;66.82;99676.61;1755206;81;20926;-77
2021/06/19 05:20:08;;;;;;;10.55;3.95;;;;;;;24.36;66.03;99669.20;1755589;81;21037;-79
2021/06/19 05:22:34;;;;;;;4.55;3.47;;;;;;;24.44;65.71;99676.41;1755357;81;21025;-78
2021/06/19 05:25:02;;;;;;;5.80;3.50;;;;;;;24.55;65.31;99670.92;1755620;81;20973;-78
2021/06/19 05:27:29;;;;;;;10.40;3.70;;;;;;;24.77;64.44;99669.20;1755404;81;21402;-78
2021/06/19 05:29:55;;;;;;;4.53;3.52;;;;;;;25.15;63.87;99670.78;1755285;81;20997;-77
2021/06/19 05:32:24;;;;;;;4.80;3.80;;;;;;;25.44;62.32;99667.03;1755357;81;21006;-78
2021/06/19 05:34:51;;;;;;;6.97;3.70;;;;;;;25.58;61.36;99671.30;1755374;81;20995;-78
2021/06/19 05:37:18;;;;;;;4.10;3.50;;;;;;;25.67;61.09;99670.92;1755593;81;21050;-78
2021/06/19 05:39:44;;;;;;;5.58;3.58;;;;;;;25.76;60.83;99670.00;1755512;81;21873;-78
2021/06/19 05:42:11;;;;;;;5.12;3.95;;;;;;;25.80;60.19;99682.00;1755144;81;21096;-78
2021/06/19 05:44:38;;;;;;;8.63;3.90;;;;;;;25.74;60.02;99685.30;1755487;81;21437;-77
2021/06/19 05:47:06;;;;;;;8.45;4.00;;;;;;;25.67;60.43;99685.08;1755314;81;21017;-78
2021/06/19 05:49:32;;;;;;;9.50;4.53;;;;;;;25.81;60.20;99684.17;1755544;81;21446;-78
2021/06/19 05:51:59;;;;;;;9.70;4.45;;;;;;;25.87;60.71;99684.39;1755523;81;21091;-78
2021/06/19 05:54:25;;;;;;;6.03;3.90;;;;;;;26.00;60.18;99686.63;1755407;81;20978;-77
2021/06/19 05:56:51;;;;;;;6.08;4.03;;;;;;;26.01;59.71;99686.48;1755551;81;21388;-78
2021/06/19 05:59:18;;;;;;;9.48;4.40;;;;;;;25.92;59.90;99691.43;1755580;81;20994;-78
2021/06/19 06:01:44;;;;;;;4.28;3.87;;;;;;;25.87;60.51;99694.22;1755604;81;20981;-78
2021/06/19 06:04:11;;;;;;;15.13;5.08;;;;;;;25.84;61.31;99687.86;1755624;81;21876;-77
2021/06/19 06:06:38;;;;;;;15.35;5.62;;;;;;;25.94;61.25;99693.94;1755675;81;21013;-77
2021/06/19 06:09:04;;;;;;;15.58;7.30;;;;;;;26.02;61.07;99690.81;1755277;81;21080;-77
2021/06/19 06:11:31;;;;;;;14.83;6.12;;;;;;;26.17;60.45;99696.42;1755494;81;21394;-77
2021/06/19 06:13:58;;;;;;;9.28;4.58;;;;;;;26.38;59.75;99696.87;1755491;81;20985;-78
2021/06/19 06:16:24;;;;;;;7.10;4.65;;;;;;;26.59;59.16;99692.48;1755611;81;21100;-78
2021/06/19 06:18:51;;;;;;;12.85;5.62;;;;;;;26.69;58.00;99697.70;1755179;81;20942;-77
2021/06/19 06:21:17;;;;;;;9.58;6.05;;;;;;;26.68;57.59;99690.19;1755557;81;20977;-78
2021/06/19 06:23:46;;;;;;;17.77;7.25;;;;;;;26.67;58.07;99695.69;1755372;81;21529;-78
2021/06/19 06:26:13;;;;;;;38.88;7.17;;;;;;;26.67;58.03;99696.52;1755681;81;20938;-78
2021/06/19 06:28:41;;;;;;;15.10;7.70;;;;;;;26.60;57.60;99694.64;1755476;81;21147;-77
2021/06/19 06:31:08;;;;;;;7.80;5.97;;;;;;;26.50;57.91;99697.45;1755395;80;21465;-76
2021/06/19 06:33:35;;;;;;;20.62;6.95;;;;;;;26.40;58.32;99691.39;1755300;81;21001;-77
2021/06/19 06:36:01;;;;;;;7.53;5.55;;;;;;;26.31;58.73;99698.53;1755654;81;20953;-77
2021/06/19 06:38:27;;;;;;;6.85;6.22;;;;;;;26.21;58.92;99694.26;1755316;81;21045;-77
2021/06/19 06:40:54;;;;;;;7.35;6.15;;;;;;;26.22;59.07;99688.77;1755351;80;21128;-77
2021/06/19 06:43:21;;;;;;;7.47;6.28;;;;;;;26.32;59.28;99678.03;1752168;81;20930;-77
2021/06/19 06:45:48;;;;;;;8.95;7.17;;;;;;;26.33;58.40;99673.05;1750169;82;20974;-77
2021/06/19 06:48:16;;;;;;;7.85;7.05;;;;;;;26.26;58.47;99674.13;1749847;82;21029;-77
2021/06/19 06:50:42;;;;;;;9.65;7.45;;;;;;;26.23;58.66;99674.94;1750061;82;21454;-77
2021/06/19 06:53:09;;;;;;;7.70;7.10;;;;;;;26.14;58.22;99672.75;1749973;82;21136;-76
2021/06/19 06:55:36;;;;;;;7.47;6.87;;;;;;;25.98;58.55;99668.13;1749813;82;21461;-76
2021/06/19 06:58:02;;;;;;;8.03;6.33;;;;;;;25.90;58.71;99664.59;1750065;82;20986;-76
2021/06/19 07:00:29;;;;;;;7.17;6.47;;;;;;;25.84;58.79;99667.88;1750072;82;20954;-76
2021/06/19 07:02:56;;;;;;;11.80;6.65;;;;;;;25.79;59.59;99663.00;1749966;82;20993;-76
2021/06/19 07:05:22;;;;;;;8.15;7.45;;;;;;;25.84;60.08;99667.88;1749858;82;21730;-76
2021/06/19 07:07:48;;;;;;;12.00;7.22;;;;;;;25.87;58.82;99668.41;1750157;82;20926;-76
2021/06/19 07:10:16;;;;;;;10.43;7.60;;;;;;;25.85;59.20;99675.71;1749926;82;21548;-77
2021/06/19 07:12:44;;;;;;;9.23;8.48;;;;;;;25.76;60.15;99674.00;1750034;82;20954;-76
2021/06/19 07:15:15;;;;;;;8.33;7.42;;;;;;;25.78;59.59;99683.17;1749929;82;20938;-77
2021/06/19 07:17:42;;;;;;;8.28;7.33;;;;;;;25.78;59.85;99675.98;1750114;82;21113;-76
2021/06/19 07:20:10;;;;;;;14.63;8.65;;;;;;;25.72;60.12;99674.80;1749757;82;20977;-76
2021/06/19 07:22:37;;;;;;;8.03;7.08;;;;;;;25.74;60.35;99671.98;1750176;82;20990;-75
2021/06/19 07:25:05;;;;;;;10.08;8.00;;;;;;;25.84;60.26;99676.70;1749904;82;21430;-75
2021/06/19 07:27:31;;;;;;;11.33;7.22;;;;;;;25.83;59.68;99667.03;1749966;82;20989;-75
2021/06/19 07:29:58;;;;;;;7.00;6.20;;;;;;;25.72;60.45;99674.80;1749850;82;21131;-75
2021/06/19 07:32:24;;;;;;;6.67;6.08;;;;;;;25.65;60.94;99672.90;1749984;82;21194;-76
2021/06/19 07:34:50;;;;;;;7.97;6.42;;;;;;;25.64;60.96;99673.89;1749827;82;20939;-76
2021/06/19 07:37:19;;;;;;;10.53;8.00;;;;;;;25.70;61.23;99668.79;1749839;82;20977;-76
2021/06/19 07:39:45;;;;;;;12.70;10.98;;;;;;;25.80;60.01;99671.34;1750005;82;20993;-76
2021/06/19 07:42:11;;;;;;;11.18;10.08;;;;;;;25.78;60.10;99663.19;1749865;82;21092;-75
2021/06/19 07:44:38;;;;;;;10.18;9.25;;;;;;;25.83;60.14;99665.70;1754975;81;20973;-74
2021/06/19 07:47:05;;;;;;;15.93;9.40;;;;;;;25.95;59.27;99668.47;1755426;81;21079;-75
2021/06/19 07:49:32;;;;;;;11.55;10.65;;;;;;;26.13;59.35;99666.23;1755470;81;20978;-74
2021/06/19 07:52:01;;;;;;;11.73;10.45;;;;;;;26.35;58.44;99667.89;1755514;81;21001;-75
2021/06/19 07:54:28;;;;;;;30.68;12.03;;;;;;;26.62;58.17;99662.81;1755438;81;21163;-75
2021/06/19 07:56:54;;;;;;;14.50;10.43;;;;;;;26.87;57.43;99658.89;1755524;81;21581;-75
2021/06/19 07:59:21;;;;;;;10.40;9.38;;;;;;;27.00;56.74;99662.78;1755663;81;21429;-75
2021/06/19 08:01:48;;;;;;;10.88;10.08;;;;;;;27.09;56.30;99664.48;1755414;80;20969;-74
2021/06/19 08:04:14;;;;;;;11.20;10.20;;;;;;;27.04;55.87;99657.45;1755490;81;21029;-74
2021/06/19 08:06:41;;;;;;;11.55;10.60;;;;;;;27.02;55.73;99659.45;1755525;81;21256;-75
2021/06/19 08:09:07;;;;;;;10.78;9.90;;;;;;;27.05;55.42;99656.95;1755330;81;21041;-75
2021/06/19 08:11:34;;;;;;;12.55;11.55;;;;;;;26.98;55.14;99658.60;1755638;81;21501;-75
2021/06/19 08:14:01;;;;;;;10.43;9.43;;;;;;;26.86;55.10;99657.22;1755607;80;21390;-76
2021/06/19 08:16:28;;;;;;;10.23;9.28;;;;;;;26.86;55.35;99659.89;1755497;81;21041;-75
2021/06/19 08:18:55;;;;;;;21.77;10.28;;;;;;;26.96;55.76;99660.63;1755316;81;21139;-75
2021/06/19 08:21:21;;;;;;;16.32;9.18;;;;;;;27.04;55.28;99668.63;1755522;81;21382;-74
2021/06/19 08:23:48;;;;;;;9.18;8.38;;;;;;;27.07;54.98;99666.48;1755500;81;20989;-74
2021/06/19 08:26:14;;;;;;;9.00;8.20;;;;;;;27.10;54.30;99667.98;1755433;81;21032;-75
2021/06/19 08:28:41;;;;;;;9.73;8.38;;;;;;;27.07;55.04;99667.81;1755484;81;21390;-74
2021/06/19 08:31:07;;;;;;;8.90;7.70;;;;;;;27.09;55.24;99665.81;1755422;81;21193;-76
2021/06/19 08:33:34;;;;;;;9.18;8.30;;;;;;;27.18;55.08;99663.17;1755406;81;21021;-74
2021/06/19 08:36:01;;;;;;;8.98;8.18;;;;;;;27.36;55.04;99659.34;1755461;81;20953;-76
2021/06/19 08:38:27;;;;;;;11.25;8.73;;;;;;;27.52;54.46;99662.52;1755426;80;21505;-76
2021/06/19 08:40:54;;;;;;;9.28;7.90;;;;;;;27.59;54.75;99656.01;1755394;81;20933;-75
2021/06/19 08:43:20;;;;;;;9.93;8.33;;;;;;;27.63;54.25;99662.19;1755383;81;21178;-74
2021/06/19 08:45:48;;;;;;;14.78;9.25;;;;;;;27.67;54.11;99660.02;1755394;81;21021;-76
2021/06/19 08:48:16;;;;;;;10.03;7.97;;;;;;;27.71;54.34;99656.85;1728268;81;21040;-74
2021/06/19 08:50:43;;;;;;;11.68;8.48;;;;;;;27.71;53.64;99658.19;1704791;81;21411;-74
2021/06/19 08:53:09;;;;;;;8.45;7.62;;;;;;;27.68;53.57;99657.69;1755457;81;20934;-74
2021/06/19 08:55:37;;;;;;;8.20;7.55;;;;;;;27.68;53.98;99663.03;1755449;81;21133;-75
2021/06/19 08:58:05;;;;;;;14.38;7.85;;;;;;;27.67;53.98;99656.84;1755376;81;20926;-75
2021/06/19 09:00:31;;;;;;;9.05;8.15;;;;;;;27.66;54.46;99659.69;1755324;81;20918;-75
2021/06/19 09:02:58;;;;;;;17.82;9.55;;;;;;;27.70;54.28;99663.70;1755670;81;21474;-75
2021/06/19 09:05:28;;;;;;;8.95;8.25;;;;;;;27.76;54.64;99669.72;1755472;81;21461;-75
2021/06/19 09:07:58;;;;;;;8.63;7.92;;;;;;;27.75;53.74;99665.37;1755741;81;21749;-74
2021/06/19 09:10:33;;;;;;;8.48;7.75;;;;;;;27.69;54.44;99669.55;1755306;81;21032;-74
2021/06/19 09:13:08;;;;;;;9.58;7.97;;;;;;;27.66;54.32;99665.03;1755817;81;21458;-72
2021/06/19 09:15:39;;;;;;;10.90;8.48;;;;;;;27.56;53.87;99660.34;1755448;81;21020;-73
2021/06/19 09:18:18;;;;;;;9.58;8.88;;;;;;;27.42;54.38;99665.84;1755634;81;21057;-76
2021/06/19 09:20:56;;;;;;;11.93;8.58;;;;;;;27.36;54.83;99659.84;1755398;81;21200;-75
2021/06/19 09:23:42;;;;;;;12.63;9.38;;;;;;;27.41;55.00;99652.98;1754891;81;20930;-74
2021/06/19 09:26:18;;;;;;;9.73;7.70;;;;;;;27.43;54.19;99644.30;1755478;81;21036;-75
2021/06/19 09:29:01;;;;;;;10.63;8.10;;;;;;;27.39;53.44;99649.64;1755710;81;21567;-74
2021/06/19 09:31:46;;;;;;;12.85;8.30;;;;;;;27.36;53.71;99644.66;1755500;81;21082;-75
2021/06/19 09:34:25;;;;;;;14.85;7.83;;;;;;;27.38;54.13;99638.62;1755566;81;21152;-75
2021/06/19 09:37:02;;;;;;;10.78;7.85;;;;;;;27.48;53.33;99639.80;1755312;81;20934;-74
2021/06/19 09:39:29;;;;;;;7.55;6.95;;;;;;;27.69;52.83;99630.80;1755129;81;20988;-75
2021/06/19 09:42:01;;;;;;;8.08;6.62;;;;;;;27.89;52.24;99636.61;1755493;81;21525;-75
2021/06/19 09:44:50;;;;;;;7.05;6.35;;;;;;;27.85;50.84;99634.44;1754657;81;21536;-73
2021/06/19 09:47:17;;;;;;;10.32;6.47;;;;;;;27.73;50.80;99645.50;1755637;81;21169;-73
2021/06/19 09:49:47;;;;;;;6.78;6.05;;;;;;;27.58;51.50;99637.80;1755266;81;21109;-74
2021/06/19 09:52:14;;;;;;;7.83;6.85;;;;;;;27.47;52.01;99636.80;1755367;81;20993;-74
2021/06/19 09:54:43;;;;;;;11.60;6.85;;;;;;;27.37;52.42;99634.30;1755281;81;20954;-74
2021/06/19 09:57:18;;;;;;;9.53;6.10;;;;;;;27.34;52.73;99635.14;1755375;81;20941;-73
2021/06/19 09:59:44;;;;;;;19.50;10.70;;;;;;;27.38;52.78;99639.12;1755457;81;21129;-74
2021/06/19 10:02:30;;;;;;;9.23;6.80;;;;;;;27.43;52.51;99640.80;1755463;81;20916;-74
2021/06/19 10:04:57;;;;;;;11.48;8.53;;;;;;;27.45;52.35;99638.80;1755432;81;21025;-73
2021/06/19 10:07:25;;;;;;;8.28;7.58;;;;;;;27.45;52.53;99638.80;1755587;81;20993;-74
2021/06/19 10:09:55;;;;;;;11.48;7.37;;;;;;;27.48;52.42;99636.30;1755387;81;20870;-74
2021/06/19 10:12:27;;;;;;;12.40;7.03;;;;;;;27.59;52.72;99626.62;1755426;81;20926;-73
2021/06/19 10:15:03;;;;;;;8.35;6.28;;;;;;;27.78;52.60;99628.42;1755293;80;21053;-73
2021/06/19 10:17:38;;;;;;;11.18;6.53;;;;;;;27.89;51.25;99624.58;1755424;80;21442;-73
2021/06/19 10:20:08;;;;;;;10.95;7.20;;;;;;;27.91;50.89;99620.40;1755435;81;21454;-73
2021/06/19 10:22:36;;;;;;;6.60;5.53;;;;;;;27.91;51.48;99623.08;1756029;81;21084;-74
2021/06/19 10:25:10;;;;;;;6.20;5.60;;;;;;;27.87;50.00;99616.39;1755520;81;21114;-74
2021/06/19 10:27:38;;;;;;;9.43;5.92;;;;;;;27.79;49.82;99612.72;1755564;80;21025;-73
2021/06/19 10:30:08;;;;;;;5.95;5.35;;;;;;;27.83;50.29;99610.55;1755650;81;21068;-73
2021/06/19 10:32:48;;;;;;;7.37;5.78;;;;;;;27.95;50.03;99610.54;1755935;81;21001;-74
2021/06/19 10:35:19;;;;;;;5.20;4.80;;;;;;;28.11;49.70;99605.64;1755871;81;20985;-75
2021/06/19 10:37:47;;;;;;;5.53;5.00;;;;;;;28.21;49.98;99606.78;1755680;81;21848;-74
2021/06/19 10:40:28;;;;;;;10.53;5.62;;;;;;;28.16;50.02;99607.80;1755746;81;20973;-74
2021/06/19 10:43:21;;;;;;;7.85;6.17;;;;;;;28.02;49.76;99609.33;1755687;81;20997;-74
2021/06/19 10:45:49;;;;;;;9.03;7.17;;;;;;;27.88;50.43;99596.68;1755571;81;21037;-74
2021/06/19 10:48:33;;;;;;;6.20;5.60;;;;;;;27.88;50.91;99601.52;1755683;81;21508;-73
2021/06/19 10:51:22;;;;;;;6.35;5.75;;;;;;;27.99;49.67;99598.97;1755485;80;21143;-74
2021/06/19 10:54:23;;;;;;;5.97;5.42;;;;;;;28.00;49.35;99593.95;1755260;81;21017;-74
2021/06/19 10:56:57;;;;;;;10.82;5.53;;;;;;;28.04;49.51;99593.95;1755458;81;20953;-74
2021/06/19 10:59:30;;;;;;;7.92;5.10;;;;;;;28.21;48.35;99586.22;1755503;81;21410;-74
2021/06/19 11:01:58;;;;;;;7.60;5.83;;;;;;;28.33;47.56;99588.86;1755351;81;21509;-75
2021/06/19 11:04:42;;;;;;;13.80;8.25;;;;;;;28.42;48.95;99585.62;1755419;81;21952;-75
2021/06/19 11:07:23;;;;;;;6.25;5.67;;;;;;;28.39;50.18;99585.47;1755392;81;20978;-74
2021/06/19 11:09:50;;;;;;;5.47;4.97;;;;;;;28.27;49.35;99587.38;1755510;81;20977;-74
2021/06/19 11:12:24;;;;;;;9.60;5.60;;;;;;;28.13;47.62;99592.93;1755499;81;21465;-73
2021/06/19 11:14:55;;;;;;;6.05;5.42;;;;;;;27.95;48.03;99597.17;1755754;81;20970;-73
2021/06/19 11:17:33;;;;;;;5.75;5.20;;;;;;;27.68;48.65;99590.88;1755434;81;21508;-74
2021/06/19 11:20:18;;;;;;;10.43;5.70;;;;;;;27.56;49.46;99593.55;1755672;81;20914;-74
2021/06/19 11:22:58;;;;;;;5.42;5.03;;;;;;;27.64;49.49;99585.03;1755725;81;20989;-73
2021/06/19 11:25:53;;;;;;;5.42;4.92;;;;;;;27.80;47.62;99590.84;1755717;81;21036;-75
2021/06/19 11:28:25;;;;;;;6.28;5.47;;;;;;;27.93;48.03;99583.14;1755555;81;20950;-74
2021/06/19 11:31:00;;;;;;;;;;;;;;;28.07;47.53;99585.09;1758326;81;21170;-73
2021/06/19 11:33:28;;;;;;;8.58;5.67;;;;;;;28.17;47.45;99579.55;1755370;81;20133;-74
2021/06/19 11:36:06;;;;;;;5.40;4.20;;;;;;;28.27;46.66;99571.33;1755730;81;21072;-75
2021/06/19 11:38:47;;;;;;;5.53;4.65;;;;;;;28.42;45.21;99570.41;1755438;81;20982;-74
2021/06/19 11:41:18;;;;;;;5.10;4.70;;;;;;;28.51;44.77;99587.27;1755847;81;21539;-73